createdAt,value
2022-08-22T00:00:09.492Z,545.00
2022-08-22T00:01:04.708Z,549.00
2022-08-22T00:02:00.058Z,548.00
2022-08-22T00:02:54.358Z,549.00
2022-08-22T00:02:57.786Z,540.00
2022-08-22T00:03:02.620Z,539.00
2022-08-22T00:03:04.819Z,569.00
2022-08-22T00:03:08.817Z,561.00
2022-08-22T00:03:10.647Z,545.00
2022-08-22T00:03:15.045Z,544.00
2022-08-22T00:03:52.866Z,545.00
2022-08-22T00:04:47.769Z,555.00
2022-08-22T00:05:42.843Z,551.00
2022-08-22T00:06:38.225Z,549.00
2022-08-22T00:07:33.920Z,554.00
2022-08-22T00:08:29.179Z,544.00
2022-08-22T00:09:24.295Z,557.00
2022-08-22T00:10:25.224Z,548.00
2022-08-22T00:11:15.919Z,545.00
2022-08-22T00:12:11.714Z,543.00
2022-08-22T00:13:06.915Z,553.00
2022-08-22T00:14:02.257Z,547.00
2022-08-22T00:14:57.314Z,553.00
2022-08-22T00:15:52.690Z,550.00
2022-08-22T00:16:47.799Z,548.00
2022-08-22T00:17:43.204Z,549.00
2022-08-22T00:18:39.006Z,551.00
2022-08-22T00:19:34.263Z,552.00
2022-08-22T00:20:29.472Z,554.00
2022-08-22T00:21:25.272Z,550.00
2022-08-22T00:22:20.363Z,551.00
2022-08-22T00:23:15.482Z,550.00
2022-08-22T00:24:10.722Z,550.00
2022-08-22T00:25:05.816Z,547.00
2022-08-22T00:26:00.919Z,550.00
2022-08-22T00:26:56.030Z,548.00
2022-08-22T00:27:51.119Z,554.00
2022-08-22T00:28:46.124Z,553.00
2022-08-22T00:29:41.240Z,554.00
2022-08-22T00:30:36.367Z,554.00
2022-08-22T00:31:31.559Z,543.00
2022-08-22T00:32:26.629Z,547.00
2022-08-22T00:33:21.743Z,548.00
2022-08-22T00:34:16.868Z,553.00
2022-08-22T00:35:11.845Z,555.00
2022-08-22T00:36:06.969Z,554.00
2022-08-22T00:37:02.041Z,551.00
2022-08-22T00:37:57.097Z,550.00
2022-08-22T00:38:52.372Z,544.00
2022-08-22T00:39:47.397Z,547.00
2022-08-22T00:40:42.365Z,546.00
2022-08-22T00:41:37.425Z,554.00
2022-08-22T00:42:32.492Z,538.00
2022-08-22T00:43:27.618Z,538.00
2022-08-22T00:44:22.594Z,535.00
2022-08-22T00:45:17.659Z,533.00
2022-08-22T00:46:12.766Z,536.00
2022-08-22T00:47:09.486Z,539.00
2022-08-22T00:48:04.595Z,536.00
2022-08-22T00:48:59.698Z,535.00
2022-08-22T00:49:54.670Z,535.00
2022-08-22T00:50:49.743Z,534.00
2022-08-22T00:51:44.814Z,538.00
2022-08-22T00:52:39.891Z,540.00
2022-08-22T00:53:34.990Z,541.00
2022-08-22T00:54:30.000Z,535.00
2022-08-22T00:55:25.070Z,540.00
2022-08-22T00:56:20.123Z,536.00
2022-08-22T00:57:15.126Z,542.00
2022-08-22T00:58:10.212Z,544.00
2022-08-22T00:59:18.021Z,538.00
2022-08-22T01:00:01.256Z,540.00
2022-08-22T01:00:55.390Z,535.00
2022-08-22T01:01:52.483Z,541.00
2022-08-22T01:02:52.287Z,535.00
2022-08-22T01:03:43.649Z,536.00
2022-08-22T01:04:37.691Z,529.00
2022-08-22T01:05:32.717Z,535.00
2022-08-22T01:06:27.792Z,531.00
2022-08-22T01:07:22.911Z,536.00
2022-08-22T01:08:17.916Z,537.00
2022-08-22T01:09:12.887Z,537.00
2022-08-22T01:10:07.977Z,534.00
2022-08-22T01:11:02.985Z,545.00
2022-08-22T01:11:58.096Z,538.00
2022-08-22T01:12:53.355Z,534.00
2022-08-22T01:13:48.453Z,535.00
2022-08-22T01:14:43.560Z,539.00
2022-08-22T01:15:39.369Z,538.00
2022-08-22T01:16:34.598Z,540.00
2022-08-22T01:17:30.508Z,538.00
2022-08-22T01:18:25.631Z,532.00
2022-08-22T01:19:21.047Z,542.00
2022-08-22T01:20:16.851Z,539.00
2022-08-22T01:21:12.087Z,536.00
2022-08-22T01:22:07.437Z,535.00
2022-08-22T01:23:03.506Z,539.00
2022-08-22T01:23:58.742Z,542.00
2022-08-22T01:24:54.562Z,540.00
2022-08-22T01:25:49.795Z,543.00
2022-08-22T01:26:45.112Z,538.00
2022-08-22T01:27:41.473Z,539.00
2022-08-22T01:28:36.705Z,538.00
2022-08-22T01:29:32.661Z,539.00
2022-08-22T01:30:27.736Z,540.00
2022-08-22T01:31:23.110Z,538.00
2022-08-22T01:32:18.785Z,538.00
2022-08-22T01:33:14.076Z,537.00
2022-08-22T01:34:12.765Z,539.00
2022-08-22T01:35:05.562Z,542.00
2022-08-22T01:36:00.860Z,542.00
2022-08-22T01:36:56.662Z,543.00
2022-08-22T01:37:51.878Z,542.00
2022-08-22T01:38:47.081Z,542.00
2022-08-22T01:39:42.865Z,544.00
2022-08-22T01:40:37.984Z,541.00
2022-08-22T01:41:34.965Z,541.00
2022-08-22T01:42:28.994Z,540.00
2022-08-22T01:43:51.219Z,540.00
2022-08-22T01:44:22.061Z,540.00
2022-08-22T01:45:16.128Z,539.00
2022-08-22T01:46:11.468Z,542.00
2022-08-22T01:47:07.554Z,541.00
2022-08-22T01:48:02.838Z,547.00
2022-08-22T01:48:58.680Z,545.00
2022-08-22T01:49:53.906Z,542.00
2022-08-22T01:50:49.155Z,540.00
2022-08-22T01:51:44.835Z,534.00
2022-08-22T01:52:40.091Z,538.00
2022-08-22T01:53:35.914Z,546.00
2022-08-22T01:54:31.113Z,543.00
2022-08-22T01:55:26.494Z,540.00
2022-08-22T01:56:22.186Z,544.00
2022-08-22T01:57:17.410Z,539.00
2022-08-22T01:58:12.538Z,537.00
2022-08-22T01:59:10.950Z,540.00
2022-08-22T02:00:03.559Z,543.00
2022-08-22T02:00:58.640Z,545.00
2022-08-22T02:01:54.034Z,541.00
2022-08-22T02:02:49.706Z,541.00
2022-08-22T02:03:45.013Z,539.00
2022-08-22T02:04:40.741Z,540.00
2022-08-22T02:05:36.035Z,534.00
2022-08-22T02:06:31.343Z,535.00
2022-08-22T02:07:32.101Z,539.00
2022-08-22T02:08:23.315Z,535.00
2022-08-22T02:09:17.543Z,541.00
2022-08-22T02:10:12.541Z,537.00
2022-08-22T02:11:07.601Z,542.00
2022-08-22T02:12:02.663Z,540.00
2022-08-22T02:12:57.717Z,541.00
2022-08-22T02:13:52.781Z,540.00
2022-08-22T02:14:47.848Z,544.00
2022-08-22T02:15:44.018Z,544.00
2022-08-22T02:16:38.207Z,542.00
2022-08-22T02:17:33.795Z,540.00
2022-08-22T02:18:28.859Z,545.00
2022-08-22T02:19:23.824Z,541.00
2022-08-22T02:20:20.452Z,542.00
2022-08-22T02:21:13.922Z,541.00
2022-08-22T02:22:09.142Z,544.00
2022-08-22T02:23:04.253Z,545.00
2022-08-22T02:23:59.395Z,540.00
2022-08-22T02:24:54.364Z,543.00
2022-08-22T02:25:49.472Z,544.00
2022-08-22T02:26:44.533Z,548.00
2022-08-22T02:27:39.666Z,545.00
2022-08-22T02:28:34.880Z,547.00
2022-08-22T02:29:30.283Z,544.00
2022-08-22T02:30:25.380Z,545.00
2022-08-22T02:31:20.492Z,549.00
2022-08-22T02:32:15.619Z,547.00
2022-08-22T02:33:11.969Z,542.00
2022-08-22T02:34:07.152Z,547.00
2022-08-22T02:35:02.311Z,543.00
2022-08-22T02:35:57.517Z,544.00
2022-08-22T02:36:52.621Z,541.00
2022-08-22T02:37:48.998Z,537.00
2022-08-22T02:38:44.083Z,539.00
2022-08-22T02:39:39.380Z,541.00
2022-08-22T02:40:34.488Z,536.00
2022-08-22T02:41:31.037Z,542.00
2022-08-22T02:42:24.922Z,541.00
2022-08-22T02:43:20.071Z,543.00
2022-08-22T02:44:15.267Z,539.00
2022-08-22T02:45:10.635Z,547.00
2022-08-22T02:46:05.742Z,541.00
2022-08-22T02:47:00.767Z,538.00
2022-08-22T02:47:55.857Z,544.00
2022-08-22T02:48:51.076Z,551.00
2022-08-22T02:49:46.435Z,546.00
2022-08-22T02:50:41.509Z,550.00
2022-08-22T02:51:36.742Z,547.00
2022-08-22T02:52:31.975Z,548.00
2022-08-22T02:53:27.218Z,552.00
2022-08-22T02:54:22.417Z,548.00
2022-08-22T02:55:17.545Z,554.00
2022-08-22T02:56:12.687Z,546.00
2022-08-22T02:57:14.303Z,548.00
2022-08-22T02:58:03.894Z,555.00
2022-08-22T02:59:00.024Z,546.00
2022-08-22T02:59:53.285Z,559.00
2022-08-22T03:00:48.605Z,555.00
2022-08-22T03:01:43.721Z,552.00
2022-08-22T03:02:38.952Z,552.00
2022-08-22T03:03:34.189Z,553.00
2022-08-22T03:04:29.297Z,551.00
2022-08-22T03:05:24.389Z,550.00
2022-08-22T03:06:19.389Z,554.00
2022-08-22T03:07:14.451Z,548.00
2022-08-22T03:08:09.560Z,543.00
2022-08-22T03:09:04.585Z,550.00
2022-08-22T03:09:59.579Z,554.00
2022-08-22T03:10:54.660Z,550.00
2022-08-22T03:11:49.746Z,549.00
2022-08-22T03:12:44.890Z,549.00
2022-08-22T03:13:40.121Z,539.00
2022-08-22T03:14:35.366Z,548.00
2022-08-22T03:15:30.366Z,539.00
2022-08-22T03:16:25.381Z,544.00
2022-08-22T03:17:20.594Z,552.00
2022-08-22T03:18:15.821Z,544.00
2022-08-22T03:19:18.337Z,544.00
2022-08-22T03:20:07.076Z,535.00
2022-08-22T03:21:01.084Z,536.00
2022-08-22T03:21:56.111Z,544.00
2022-08-22T03:22:51.185Z,540.00
2022-08-22T03:23:46.251Z,539.00
2022-08-22T03:24:41.365Z,548.00
2022-08-22T03:25:36.353Z,546.00
2022-08-22T03:26:31.531Z,546.00
2022-08-22T03:27:32.106Z,543.00
2022-08-22T03:28:22.486Z,545.00
2022-08-22T03:29:16.524Z,546.00
2022-08-22T03:30:11.741Z,543.00
2022-08-22T03:31:07.112Z,549.00
2022-08-22T03:32:02.279Z,541.00
2022-08-22T03:32:57.341Z,548.00
2022-08-22T03:33:52.485Z,550.00
2022-08-22T03:34:47.560Z,539.00
2022-08-22T03:35:42.689Z,551.00
2022-08-22T03:36:37.780Z,554.00
2022-08-22T03:37:32.900Z,540.00
2022-08-22T03:38:27.909Z,549.00
2022-08-22T03:39:22.969Z,545.00
2022-08-22T03:40:18.105Z,545.00
2022-08-22T03:41:13.084Z,546.00
2022-08-22T03:42:08.065Z,551.00
2022-08-22T03:43:03.147Z,546.00
2022-08-22T03:43:58.256Z,547.00
2022-08-22T03:44:53.366Z,547.00
2022-08-22T03:45:48.469Z,546.00
2022-08-22T03:46:43.587Z,545.00
2022-08-22T03:47:38.674Z,546.00
2022-08-22T03:48:33.801Z,543.00
2022-08-22T03:49:28.993Z,549.00
2022-08-22T03:50:24.226Z,543.00
2022-08-22T03:51:19.349Z,544.00
2022-08-22T03:52:14.456Z,548.00
2022-08-22T03:53:10.281Z,549.00
2022-08-22T03:54:05.825Z,549.00
2022-08-22T03:54:59.862Z,554.00
2022-08-22T03:55:54.993Z,547.00
2022-08-22T03:56:49.930Z,545.00
2022-08-22T03:57:45.012Z,541.00
2022-08-22T03:58:40.142Z,542.00
2022-08-22T03:59:35.354Z,548.00
2022-08-22T04:00:31.649Z,545.00
2022-08-22T04:01:25.611Z,541.00
2022-08-22T04:02:27.512Z,538.00
2022-08-22T04:03:16.989Z,547.00
2022-08-22T04:04:11.874Z,543.00
2022-08-22T04:05:07.288Z,548.00
2022-08-22T04:06:02.558Z,546.00
2022-08-22T04:06:57.701Z,550.00
2022-08-22T04:07:52.918Z,554.00
2022-08-22T04:08:48.028Z,550.00
2022-08-22T04:09:46.030Z,546.00
2022-08-22T04:10:41.193Z,547.00
2022-08-22T04:11:36.336Z,542.00
2022-08-22T04:12:31.517Z,546.00
2022-08-22T04:13:26.665Z,544.00
2022-08-22T04:14:21.668Z,553.00
2022-08-22T04:15:16.677Z,544.00
2022-08-22T04:16:11.836Z,544.00
2022-08-22T04:17:06.847Z,553.00
2022-08-22T04:18:01.900Z,539.00
2022-08-22T04:18:57.034Z,548.00
2022-08-22T04:19:52.124Z,549.00
2022-08-22T04:20:47.201Z,552.00
2022-08-22T04:21:42.255Z,547.00
2022-08-22T04:22:37.372Z,551.00
2022-08-22T04:23:32.455Z,556.00
2022-08-22T04:24:27.493Z,553.00
2022-08-22T04:25:22.563Z,550.00
2022-08-22T04:26:17.552Z,555.00
2022-08-22T04:27:12.578Z,550.00
2022-08-22T04:28:07.579Z,550.00
2022-08-22T04:29:02.573Z,558.00
2022-08-22T04:29:57.631Z,551.00
2022-08-22T04:30:52.668Z,548.00
2022-08-22T04:31:47.703Z,553.00
2022-08-22T04:32:46.455Z,556.00
2022-08-22T04:33:41.601Z,552.00
2022-08-22T04:34:36.649Z,548.00
2022-08-22T04:35:31.687Z,553.00
2022-08-22T04:36:26.682Z,557.00
2022-08-22T04:37:21.667Z,563.00
2022-08-22T04:38:16.682Z,557.00
2022-08-22T04:39:11.696Z,555.00
2022-08-22T04:40:06.733Z,555.00
2022-08-22T04:41:04.575Z,555.00
2022-08-22T04:42:06.962Z,553.00
2022-08-22T04:42:52.992Z,557.00
2022-08-22T04:43:47.788Z,556.00
2022-08-22T04:44:43.069Z,559.00
2022-08-22T04:45:38.615Z,563.00
2022-08-22T04:46:36.862Z,562.00
2022-08-22T04:47:29.671Z,559.00
2022-08-22T04:48:25.525Z,554.00
2022-08-22T04:49:20.856Z,562.00
2022-08-22T04:50:16.276Z,553.00
2022-08-22T04:51:12.011Z,554.00
2022-08-22T04:52:07.341Z,558.00
2022-08-22T04:53:02.651Z,553.00
2022-08-22T04:53:58.952Z,549.00
2022-08-22T04:54:54.283Z,552.00
2022-08-22T04:55:50.134Z,550.00
2022-08-22T04:56:45.421Z,547.00
2022-08-22T04:57:40.787Z,554.00
2022-08-22T04:58:36.573Z,548.00
2022-08-22T04:59:31.925Z,549.00
2022-08-22T05:00:27.691Z,544.00
2022-08-22T05:01:22.968Z,572.00
2022-08-22T05:02:18.281Z,582.00
2022-08-22T05:03:14.007Z,553.00
2022-08-22T05:04:09.358Z,552.00
2022-08-22T05:05:04.705Z,556.00
2022-08-22T05:06:02.020Z,562.00
2022-08-22T05:06:56.397Z,575.00
2022-08-22T05:07:52.290Z,563.00
2022-08-22T05:08:48.393Z,560.00
2022-08-22T05:09:44.428Z,562.00
2022-08-22T05:10:38.789Z,564.00
2022-08-22T05:11:34.673Z,563.00
2022-08-22T05:12:29.996Z,565.00
2022-08-22T05:13:25.417Z,564.00
2022-08-22T05:14:20.467Z,565.00
2022-08-22T05:15:15.533Z,565.00
2022-08-22T05:16:12.462Z,564.00
2022-08-22T05:17:07.515Z,563.00
2022-08-22T05:18:02.597Z,586.00
2022-08-22T05:18:57.679Z,563.00
2022-08-22T05:19:52.725Z,558.00
2022-08-22T05:20:47.772Z,558.00
2022-08-22T05:21:42.911Z,546.00
2022-08-22T05:22:38.001Z,557.00
2022-08-22T05:23:33.124Z,550.00
2022-08-22T05:24:28.298Z,550.00
2022-08-22T05:25:23.142Z,555.00
2022-08-22T05:26:18.391Z,560.00
2022-08-22T05:27:13.795Z,552.00
2022-08-22T05:28:09.211Z,558.00
2022-08-22T05:29:04.935Z,555.00
2022-08-22T05:30:00.323Z,557.00
2022-08-22T05:30:56.240Z,565.00
2022-08-22T05:31:51.547Z,571.00
2022-08-22T05:32:46.880Z,560.00
2022-08-22T05:33:42.689Z,560.00
2022-08-22T05:34:38.060Z,567.00
2022-08-22T05:35:33.559Z,560.00
2022-08-22T05:36:29.779Z,557.00
2022-08-22T05:37:25.176Z,563.00
2022-08-22T05:38:20.859Z,563.00
2022-08-22T05:39:16.224Z,602.00
2022-08-22T05:40:11.750Z,574.00
2022-08-22T05:41:07.022Z,566.00
2022-08-22T05:42:02.479Z,551.00
2022-08-22T05:42:57.886Z,556.00
2022-08-22T05:43:52.975Z,554.00
2022-08-22T05:44:48.074Z,558.00
2022-08-22T05:45:43.495Z,552.00
2022-08-22T05:46:38.307Z,564.00
2022-08-22T05:47:33.390Z,554.00
2022-08-22T05:48:28.487Z,562.00
2022-08-22T05:49:23.593Z,554.00
2022-08-22T05:50:18.699Z,560.00
2022-08-22T05:51:13.803Z,560.00
2022-08-22T05:52:08.919Z,557.00
2022-08-22T05:53:05.247Z,560.00
2022-08-22T05:54:00.617Z,556.00
2022-08-22T05:54:56.001Z,550.00
2022-08-22T05:55:51.453Z,559.00
2022-08-22T05:56:46.428Z,557.00
2022-08-22T05:57:41.429Z,561.00
2022-08-22T05:58:36.593Z,555.00
2022-08-22T05:59:31.535Z,556.00
2022-08-22T06:00:26.543Z,554.00
2022-08-22T06:01:21.695Z,548.00
2022-08-22T06:02:16.808Z,560.00
2022-08-22T06:03:11.915Z,556.00
2022-08-22T06:04:07.058Z,562.00
2022-08-22T06:05:02.214Z,563.00
2022-08-22T06:05:57.150Z,585.00
2022-08-22T06:06:52.238Z,580.00
2022-08-22T06:07:47.235Z,572.00
2022-08-22T06:08:42.307Z,602.00
2022-08-22T06:09:37.424Z,593.00
2022-08-22T06:10:32.498Z,576.00
2022-08-22T06:11:32.692Z,574.00
2022-08-22T06:12:23.612Z,577.00
2022-08-22T06:13:24.339Z,577.00
2022-08-22T06:14:15.013Z,570.00
2022-08-22T06:15:12.061Z,571.00
2022-08-22T06:16:04.748Z,569.00
2022-08-22T06:17:00.124Z,576.00
2022-08-22T06:17:55.523Z,583.00
2022-08-22T06:18:51.059Z,588.00
2022-08-22T06:19:46.306Z,586.00
2022-08-22T06:20:41.685Z,573.00
2022-08-22T06:21:38.486Z,569.00
2022-08-22T06:22:32.423Z,580.00
2022-08-22T06:23:27.782Z,573.00
2022-08-22T06:24:23.212Z,567.00
2022-08-22T06:25:18.620Z,570.00
2022-08-22T06:26:21.284Z,581.00
2022-08-22T06:27:10.162Z,571.00
2022-08-22T06:28:04.187Z,580.00
2022-08-22T06:28:59.325Z,590.00
2022-08-22T06:29:54.417Z,595.00
2022-08-22T06:30:49.501Z,590.00
2022-08-22T06:31:44.604Z,575.00
2022-08-22T06:32:59.587Z,571.00
2022-08-22T06:33:35.714Z,572.00
2022-08-22T06:34:29.706Z,576.00
2022-08-22T06:35:24.803Z,576.00
2022-08-22T06:36:22.098Z,588.00
2022-08-22T06:37:17.188Z,578.00
2022-08-22T06:38:12.319Z,573.00
2022-08-22T06:39:07.297Z,582.00
2022-08-22T06:40:02.569Z,575.00
2022-08-22T06:40:57.894Z,572.00
2022-08-22T06:41:53.298Z,570.00
2022-08-22T06:42:48.678Z,574.00
2022-08-22T06:43:44.111Z,572.00
2022-08-22T06:44:39.481Z,578.00
2022-08-22T06:45:34.752Z,589.00
2022-08-22T06:46:29.590Z,589.00
2022-08-22T06:47:24.658Z,589.00
2022-08-22T06:48:19.757Z,581.00
2022-08-22T06:49:14.757Z,585.00
2022-08-22T06:50:13.705Z,590.00
2022-08-22T06:51:04.898Z,586.00
2022-08-22T06:52:00.524Z,590.00
2022-08-22T06:52:55.612Z,588.00
2022-08-22T06:53:50.971Z,591.00
2022-08-22T06:54:45.955Z,590.00
2022-08-22T06:55:41.130Z,593.00
2022-08-22T06:56:36.232Z,597.00
2022-08-22T06:57:31.627Z,600.00
2022-08-22T06:58:27.001Z,602.00
2022-08-22T06:59:23.874Z,585.00
2022-08-22T07:00:18.271Z,584.00
2022-08-22T07:01:13.672Z,602.00
2022-08-22T07:02:09.124Z,611.00
2022-08-22T07:03:04.531Z,610.00
2022-08-22T07:04:00.025Z,626.00
2022-08-22T07:04:55.319Z,616.00
2022-08-22T07:05:50.701Z,589.00
2022-08-22T07:06:46.084Z,577.00
2022-08-22T07:07:41.408Z,567.00
2022-08-22T07:08:39.168Z,571.00
2022-08-22T07:09:31.638Z,576.00
2022-08-22T07:10:26.813Z,590.00
2022-08-22T07:11:21.758Z,589.00
2022-08-22T07:12:16.848Z,582.00
2022-08-22T07:13:11.938Z,570.00
2022-08-22T07:14:07.050Z,582.00
2022-08-22T07:15:04.863Z,605.00
2022-08-22T07:16:00.028Z,579.00
2022-08-22T07:16:55.105Z,580.00
2022-08-22T07:17:50.111Z,562.00
2022-08-22T07:18:45.130Z,565.00
2022-08-22T07:19:40.218Z,570.00
2022-08-22T07:20:35.284Z,583.00
2022-08-22T07:21:30.378Z,576.00
2022-08-22T07:22:25.425Z,569.00
2022-08-22T07:23:20.497Z,576.00
2022-08-22T07:24:15.593Z,577.00
2022-08-22T07:25:10.707Z,564.00
2022-08-22T07:26:05.674Z,556.00
2022-08-22T07:27:00.687Z,559.00
2022-08-22T07:27:55.819Z,577.00
2022-08-22T07:28:58.563Z,552.00
2022-08-22T07:29:47.327Z,554.00
2022-08-22T07:30:44.749Z,550.00
2022-08-22T07:31:40.157Z,558.00
2022-08-22T07:32:35.602Z,557.00
2022-08-22T07:33:31.247Z,558.00
2022-08-22T07:34:26.657Z,561.00
2022-08-22T07:35:21.702Z,558.00
2022-08-22T07:36:16.713Z,561.00
2022-08-22T07:37:11.713Z,571.00
2022-08-22T07:38:06.820Z,575.00
2022-08-22T07:39:01.949Z,578.00
2022-08-22T07:39:56.974Z,549.00
2022-08-22T07:40:52.112Z,554.00
2022-08-22T07:41:47.282Z,558.00
2022-08-22T07:42:42.322Z,556.00
2022-08-22T07:43:37.325Z,553.00
2022-08-22T07:44:32.357Z,558.00
2022-08-22T07:45:27.402Z,549.00
2022-08-22T07:46:22.570Z,545.00
2022-08-22T07:47:21.861Z,537.00
2022-08-22T07:48:22.632Z,542.00
2022-08-22T07:49:10.344Z,541.00
2022-08-22T07:50:04.706Z,539.00
2022-08-22T07:51:00.229Z,539.00
2022-08-22T07:51:55.778Z,542.00
2022-08-22T07:52:51.237Z,551.00
2022-08-22T07:53:46.700Z,548.00
2022-08-22T07:54:42.247Z,543.00
2022-08-22T07:55:41.117Z,552.00
2022-08-22T07:56:34.207Z,544.00
2022-08-22T07:57:29.961Z,546.00
2022-08-22T07:58:23.692Z,538.00
2022-08-22T07:59:18.798Z,543.00
2022-08-22T08:00:13.829Z,541.00
2022-08-22T08:01:09.162Z,543.00
2022-08-22T08:02:04.165Z,537.00
2022-08-22T08:02:59.248Z,540.00
2022-08-22T08:03:54.305Z,544.00
2022-08-22T08:04:49.317Z,551.00
2022-08-22T08:05:44.441Z,549.00
2022-08-22T08:06:39.446Z,550.00
2022-08-22T08:07:35.910Z,509.00
2022-08-22T08:08:30.896Z,521.00
2022-08-22T08:09:25.958Z,514.00
2022-08-22T08:10:20.974Z,501.00
2022-08-22T08:11:16.491Z,503.00
2022-08-22T08:12:12.154Z,507.00
2022-08-22T08:13:07.679Z,503.00
2022-08-22T08:14:03.191Z,495.00
2022-08-22T08:14:58.630Z,497.00
2022-08-22T08:15:54.152Z,491.00
2022-08-22T08:16:49.559Z,500.00
2022-08-22T08:17:45.237Z,496.00
2022-08-22T08:18:40.771Z,493.00
2022-08-22T08:19:36.332Z,499.00
2022-08-22T08:20:31.880Z,492.00
2022-08-22T08:21:27.275Z,499.00
2022-08-22T08:22:22.792Z,497.00
2022-08-22T08:23:18.341Z,490.00
2022-08-22T08:24:14.567Z,492.00
2022-08-22T08:25:08.570Z,495.00
2022-08-22T08:26:03.563Z,498.00
2022-08-22T08:26:58.567Z,500.00
2022-08-22T08:27:53.638Z,493.00
2022-08-22T08:28:48.733Z,491.00
2022-08-22T08:29:43.715Z,496.00
2022-08-22T08:30:40.589Z,492.00
2022-08-22T08:31:35.723Z,495.00
2022-08-22T08:32:30.738Z,492.00
2022-08-22T08:33:26.716Z,489.00
2022-08-22T08:34:22.050Z,495.00
2022-08-22T08:35:17.590Z,492.00
2022-08-22T08:36:13.003Z,504.00
2022-08-22T08:37:08.527Z,506.00
2022-08-22T08:38:03.983Z,499.00
2022-08-22T08:38:59.520Z,493.00
2022-08-22T08:39:54.982Z,484.00
2022-08-22T08:40:50.284Z,489.00
2022-08-22T08:41:45.859Z,494.00
2022-08-22T08:42:41.397Z,494.00
2022-08-22T08:43:36.806Z,497.00
2022-08-22T08:44:32.338Z,494.00
2022-08-22T08:45:29.070Z,502.00
2022-08-22T08:46:23.137Z,505.00
2022-08-22T08:47:18.561Z,504.00
2022-08-22T08:48:14.237Z,519.00
2022-08-22T08:49:09.684Z,504.00
2022-08-22T08:50:05.213Z,519.00
2022-08-22T08:51:01.989Z,515.00
2022-08-22T08:51:56.153Z,511.00
2022-08-22T08:52:52.948Z,518.00
2022-08-22T08:53:47.227Z,511.00
2022-08-22T08:54:42.662Z,529.00
2022-08-22T08:55:38.064Z,528.00
2022-08-22T08:56:33.185Z,531.00
2022-08-22T08:57:28.184Z,538.00
2022-08-22T08:58:23.273Z,462.00
2022-08-22T08:59:18.392Z,462.00
2022-08-22T09:00:13.582Z,455.00
2022-08-22T09:01:08.572Z,459.00
2022-08-22T09:02:03.574Z,458.00
2022-08-22T09:02:58.672Z,460.00
2022-08-22T09:03:53.802Z,462.00
2022-08-22T09:04:48.952Z,468.00
2022-08-22T09:05:43.995Z,462.00
2022-08-22T09:06:38.999Z,481.00
2022-08-22T09:07:34.048Z,473.00
2022-08-22T09:08:29.037Z,463.00
2022-08-22T09:09:24.836Z,470.00
2022-08-22T09:10:19.833Z,463.00
2022-08-22T09:11:14.830Z,480.00
2022-08-22T09:12:09.841Z,481.00
2022-08-22T09:14:01.245Z,471.00
2022-08-22T09:14:55.707Z,475.00
2022-08-22T09:15:54.969Z,483.00
2022-08-22T09:16:51.277Z,491.00
2022-08-22T09:17:43.121Z,480.00
2022-08-22T09:18:38.557Z,476.00
2022-08-22T09:19:34.073Z,472.00
2022-08-22T09:20:29.729Z,470.00
2022-08-22T09:21:31.251Z,473.00
2022-08-22T09:22:21.687Z,466.00
2022-08-22T09:23:16.242Z,464.00
2022-08-22T09:24:11.688Z,467.00
2022-08-22T09:25:07.229Z,469.00
2022-08-22T09:26:05.020Z,498.00
2022-08-22T09:26:59.344Z,478.00
2022-08-22T09:27:54.986Z,461.00
2022-08-22T09:28:50.434Z,460.00
2022-08-22T09:29:54.580Z,464.00
2022-08-22T09:30:42.463Z,461.00
2022-08-22T09:31:48.339Z,459.00
2022-08-22T09:32:35.563Z,465.00
2022-08-22T09:33:30.069Z,462.00
2022-08-22T09:34:25.636Z,472.00
2022-08-22T09:35:22.460Z,465.00
2022-08-22T09:36:16.567Z,459.00
2022-08-22T09:37:14.128Z,458.00
2022-08-22T09:38:07.678Z,460.00
2022-08-22T09:39:04.316Z,465.00
2022-08-22T09:39:59.927Z,465.00
2022-08-22T09:40:55.477Z,452.00
2022-08-22T09:41:51.592Z,458.00
2022-08-22T09:42:46.440Z,461.00
2022-08-22T09:43:45.106Z,464.00
2022-08-22T09:44:39.600Z,467.00
2022-08-22T09:45:32.744Z,467.00
2022-08-22T09:46:29.559Z,452.00
2022-08-22T09:47:24.466Z,465.00
2022-08-22T09:48:17.989Z,468.00
2022-08-22T09:49:13.037Z,463.00
2022-08-22T09:50:08.175Z,462.00
2022-08-22T09:51:28.535Z,470.00
2022-08-22T09:52:03.652Z,463.00
2022-08-22T09:52:57.027Z,464.00
2022-08-22T09:53:53.037Z,466.00
2022-08-22T09:54:46.906Z,458.00
2022-08-22T09:55:42.603Z,458.00
2022-08-22T09:56:38.122Z,451.00
2022-08-22T09:57:33.613Z,445.00
2022-08-22T09:58:29.211Z,444.00
2022-08-22T09:59:24.254Z,444.00
2022-08-22T10:00:22.124Z,440.00
2022-08-22T10:01:14.501Z,443.00
2022-08-22T10:02:15.310Z,448.00
2022-08-22T10:03:05.572Z,449.00
2022-08-22T10:03:59.690Z,452.00
2022-08-22T10:04:54.743Z,460.00
2022-08-22T10:05:49.710Z,465.00
2022-08-22T10:06:44.817Z,459.00
2022-08-22T10:07:39.966Z,433.00
2022-08-22T10:08:37.334Z,432.00
2022-08-22T10:09:32.635Z,436.00
2022-08-22T10:10:28.151Z,437.00
2022-08-22T10:11:23.995Z,433.00
2022-08-22T10:12:19.355Z,438.00
2022-08-22T10:13:15.883Z,442.00
2022-08-22T10:14:10.267Z,454.00
2022-08-22T10:15:06.835Z,432.00
2022-08-22T10:16:01.358Z,433.00
2022-08-22T10:16:56.888Z,431.00
2022-08-22T10:17:52.285Z,430.00
2022-08-22T10:18:53.252Z,426.00
2022-08-22T10:19:44.172Z,429.00
2022-08-22T10:20:38.612Z,425.00
2022-08-22T10:21:35.267Z,425.00
2022-08-22T10:22:30.312Z,430.00
2022-08-22T10:23:25.028Z,437.00
2022-08-22T10:24:25.245Z,443.00
2022-08-22T10:25:18.513Z,441.00
2022-08-22T10:26:12.809Z,439.00
2022-08-22T10:27:09.197Z,437.00
2022-08-22T10:28:03.650Z,439.00
2022-08-22T10:28:59.413Z,437.00
2022-08-22T10:29:54.982Z,429.00
2022-08-22T10:30:50.231Z,433.00
2022-08-22T10:31:59.571Z,430.00
2022-08-22T10:32:42.947Z,424.00
2022-08-22T10:33:36.612Z,421.00
2022-08-22T10:34:32.041Z,427.00
2022-08-22T10:35:27.817Z,431.00
2022-08-22T10:36:23.722Z,428.00
2022-08-22T10:37:19.048Z,424.00
2022-08-22T10:38:18.042Z,423.00
2022-08-22T10:39:13.189Z,424.00
2022-08-22T10:40:08.743Z,418.00
2022-08-22T10:41:05.533Z,422.00
2022-08-22T10:42:00.682Z,425.00
2022-08-22T10:42:55.177Z,419.00
2022-08-22T10:43:57.487Z,420.00
2022-08-22T10:44:47.146Z,418.00
2022-08-22T10:45:41.604Z,420.00
2022-08-22T10:46:37.277Z,435.00
2022-08-22T10:47:32.657Z,417.00
2022-08-22T10:48:28.153Z,415.00
2022-08-22T10:49:29.324Z,423.00
2022-08-22T10:50:20.322Z,415.00
2022-08-22T10:51:14.595Z,420.00
2022-08-22T10:52:17.265Z,424.00
2022-08-22T10:53:06.665Z,420.00
2022-08-22T10:54:01.134Z,420.00
2022-08-22T10:54:56.788Z,417.00
2022-08-22T10:55:52.293Z,423.00
2022-08-22T10:56:47.774Z,434.00
2022-08-22T10:57:43.286Z,423.00
2022-08-22T10:58:38.796Z,428.00
2022-08-22T10:59:34.131Z,421.00
2022-08-22T11:00:32.931Z,423.00
2022-08-22T11:01:40.998Z,423.00
2022-08-22T11:02:24.815Z,431.00
2022-08-22T11:03:23.374Z,432.00
2022-08-22T11:04:15.794Z,431.00
2022-08-22T11:05:10.262Z,429.00
2022-08-22T11:06:05.781Z,432.00
2022-08-22T11:07:01.362Z,438.00
2022-08-22T11:07:56.883Z,437.00
2022-08-22T11:08:52.364Z,430.00
2022-08-22T11:09:47.462Z,423.00
2022-08-22T11:10:42.474Z,427.00
2022-08-22T11:11:37.574Z,434.00
2022-08-22T11:12:34.544Z,431.00
2022-08-22T11:13:27.766Z,433.00
2022-08-22T11:14:22.772Z,430.00
2022-08-22T11:15:34.528Z,429.00
2022-08-22T11:16:14.095Z,425.00
2022-08-22T11:17:20.479Z,434.00
2022-08-22T11:18:04.281Z,455.00
2022-08-22T11:19:02.937Z,435.00
2022-08-22T11:19:54.165Z,419.00
2022-08-22T11:20:48.292Z,422.00
2022-08-22T11:21:43.401Z,428.00
2022-08-22T11:22:38.520Z,422.00
2022-08-22T11:23:34.763Z,423.00
2022-08-22T11:24:34.800Z,419.00
2022-08-22T11:25:36.277Z,411.00